createdAt,value
2024-04-18T00:00:33.162Z,100872.91
2024-04-18T00:03:03.268Z,100869.41
2024-04-18T00:05:37.368Z,100869.84
2024-04-18T00:08:09.345Z,100880.38
2024-04-18T00:10:40.189Z,100885.78
2024-04-18T00:13:12.256Z,100891.22
2024-04-18T00:16:01.094Z,100895.41
2024-04-18T00:18:38.447Z,100898.38
2024-04-18T00:21:40.778Z,100896.94
2024-04-18T00:24:30.189Z,100899.88
2024-04-18T00:27:00.502Z,100897.00
2024-04-18T00:29:39.907Z,100897.81
2024-04-18T00:32:13.685Z,100891.38
2024-04-18T00:35:03.633Z,100893.44
2024-04-18T00:37:39.724Z,100891.78
2024-04-18T00:40:10.247Z,100894.69
2024-04-18T00:42:41.249Z,100893.44
2024-04-18T00:45:11.596Z,100895.09
2024-04-18T00:47:50.176Z,100891.41
2024-04-18T00:50:21.734Z,100886.78
2024-04-18T00:52:52.236Z,100881.38
2024-04-18T00:55:30.643Z,100884.72
2024-04-18T00:58:13.913Z,100876.34
2024-04-18T01:00:45.399Z,100872.19
2024-04-18T01:03:33.979Z,100885.53
2024-04-18T01:06:11.299Z,100886.38
2024-04-18T01:09:05.546Z,100889.69
2024-04-18T01:11:35.816Z,100885.91
2024-04-18T01:14:13.622Z,100883.41
2024-04-18T01:17:04.902Z,100887.59
2024-04-18T01:19:36.253Z,100885.50
2024-04-18T01:22:07.080Z,100888.81
2024-04-18T01:24:37.483Z,100882.09
2024-04-18T01:27:07.743Z,100882.72
2024-04-18T01:29:49.203Z,100874.38
2024-04-18T01:32:38.703Z,100873.69
2024-04-18T01:35:09.430Z,100867.84
2024-04-18T01:37:49.448Z,100864.06
2024-04-18T01:40:19.846Z,100855.25
2024-04-18T01:43:28.250Z,100858.59
2024-04-18T01:46:21.644Z,100848.56
2024-04-18T01:49:03.963Z,100848.19
2024-04-18T01:51:52.943Z,100846.06
2024-04-18T01:54:37.571Z,100838.09
2024-04-18T01:57:07.990Z,100838.84
2024-04-18T01:59:57.716Z,100845.44
2024-04-18T02:02:27.980Z,100837.91
2024-04-18T02:05:11.121Z,100830.78
2024-04-18T02:07:47.397Z,100827.00
2024-04-18T02:10:18.257Z,100840.97
2024-04-18T02:13:03.904Z,100830.28
2024-04-18T02:15:52.775Z,100821.41
2024-04-18T02:18:23.264Z,100818.84
2024-04-18T02:20:53.437Z,100823.66
2024-04-18T02:23:26.575Z,100817.34
2024-04-18T02:25:56.704Z,100812.94
2024-04-18T02:28:26.875Z,100813.16
2024-04-18T02:31:16.926Z,100817.75
2024-04-18T02:33:55.018Z,100812.75
2024-04-18T02:36:26.347Z,100816.09
2024-04-18T02:39:18.557Z,100813.38
2024-04-18T02:41:49.056Z,100814.19
2024-04-18T02:44:29.160Z,100811.09
2024-04-18T02:46:59.813Z,100811.00
2024-04-18T02:49:32.449Z,100808.00
2024-04-18T02:52:02.771Z,100794.78
2024-04-18T02:54:48.291Z,100792.50
2024-04-18T02:57:18.561Z,100781.47
2024-04-18T02:59:49.130Z,100783.25
2024-04-18T03:02:26.824Z,100775.44
2024-04-18T03:05:16.190Z,100770.66
2024-04-18T03:07:46.548Z,100763.63
2024-04-18T03:10:19.186Z,100764.38
2024-04-18T03:13:06.434Z,100768.03
2024-04-18T03:15:55.689Z,100769.38
2024-04-18T03:18:26.284Z,100765.97
2024-04-18T03:21:16.809Z,100771.03
2024-04-18T03:23:47.203Z,100752.72
2024-04-18T03:26:39.484Z,100756.66
2024-04-18T03:29:09.992Z,100748.00
2024-04-18T03:31:59.962Z,100738.63
2024-04-18T03:34:51.558Z,100733.72
2024-04-18T03:37:22.736Z,100732.72
2024-04-18T03:39:53.354Z,100728.28
2024-04-18T03:42:23.779Z,100720.59
2024-04-18T03:44:56.965Z,100720.00
2024-04-18T03:47:27.396Z,100718.34
2024-04-18T03:50:15.846Z,100714.41
2024-04-18T03:52:46.651Z,100708.16
2024-04-18T03:55:35.600Z,100703.66
2024-04-18T03:58:06.817Z,100689.91
2024-04-18T04:00:53.024Z,100683.91
2024-04-18T04:03:24.743Z,100677.28
2024-04-18T04:05:56.555Z,100682.53
2024-04-18T04:08:26.886Z,100678.88
2024-04-18T04:11:16.383Z,100671.81
2024-04-18T04:13:47.379Z,100671.19
2024-04-18T04:16:22.312Z,100664.44
2024-04-18T04:19:12.532Z,100659.94
2024-04-18T04:21:52.893Z,100646.53
2024-04-18T04:24:23.751Z,100641.91
2024-04-18T04:26:56.229Z,100642.03
2024-04-18T04:29:27.823Z,100632.78
2024-04-18T04:31:58.331Z,100631.63
2024-04-18T04:34:28.907Z,100627.94
2024-04-18T04:36:59.828Z,100622.03
2024-04-18T04:39:30.348Z,100618.81
2024-04-18T04:42:21.057Z,100615.38
2024-04-18T04:44:51.855Z,100611.81
2024-04-18T04:47:36.735Z,100611.94
2024-04-18T04:50:32.830Z,100603.88
2024-04-18T04:53:18.101Z,100599.09
2024-04-18T04:56:03.454Z,100581.78
2024-04-18T04:58:33.637Z,100583.59
2024-04-18T05:01:05.485Z,100570.09
2024-04-18T05:03:39.810Z,100562.50
2024-04-18T05:06:28.473Z,100558.06
2024-04-18T05:09:19.091Z,100560.03
2024-04-18T05:11:50.727Z,100554.44
2024-04-18T05:14:38.745Z,100556.16
2024-04-18T05:17:30.984Z,100546.75
2024-04-18T05:20:16.423Z,100542.28
2024-04-18T05:22:46.888Z,100540.72
2024-04-18T05:25:17.030Z,100538.25
2024-04-18T05:27:57.857Z,100522.19
2024-04-18T05:30:56.750Z,100522.38
2024-04-18T05:33:27.162Z,100512.13
2024-04-18T05:35:57.356Z,100509.97
2024-04-18T05:38:28.221Z,100502.94
2024-04-18T05:40:58.627Z,100489.28
2024-04-18T05:43:47.059Z,100497.44
2024-04-18T05:46:19.803Z,100495.22
2024-04-18T05:48:50.099Z,100481.81
2024-04-18T05:51:20.615Z,100470.69
2024-04-18T05:54:16.568Z,100476.34
2024-04-18T05:57:04.973Z,100470.31
2024-04-18T05:59:54.926Z,100472.94
2024-04-18T06:02:25.143Z,100464.16
2024-04-18T06:04:55.673Z,100468.03
2024-04-18T06:07:46.372Z,100461.34
2024-04-18T06:10:17.186Z,100460.03
2024-04-18T06:12:47.795Z,100455.75
2024-04-18T06:15:18.501Z,100462.91
2024-04-18T06:17:49.381Z,100452.97
2024-04-18T06:20:20.399Z,100455.03
2024-04-18T06:22:51.727Z,100452.53
2024-04-18T06:25:28.412Z,100445.34
2024-04-18T06:28:03.003Z,100455.50
2024-04-18T06:30:33.587Z,100449.97
2024-04-18T06:33:04.491Z,100450.09
2024-04-18T06:35:35.279Z,100447.41
2024-04-18T06:38:06.515Z,100459.63
2024-04-18T06:40:37.291Z,100439.38
2024-04-18T06:43:07.833Z,100433.91
2024-04-18T06:45:40.682Z,100436.69
2024-04-18T06:48:11.381Z,100436.69
2024-04-18T06:50:42.264Z,100440.84
2024-04-18T06:53:12.819Z,100437.81
2024-04-18T06:55:43.479Z,100436.25
2024-04-18T06:58:14.190Z,100433.22
2024-04-18T07:00:44.584Z,100425.56
2024-04-18T07:03:16.488Z,100417.06
2024-04-18T07:05:56.020Z,100418.19
2024-04-18T07:08:29.839Z,100411.69
2024-04-18T07:11:01.606Z,100413.63
2024-04-18T07:13:34.335Z,100414.75
2024-04-18T07:16:24.172Z,100415.56
2024-04-18T07:18:57.544Z,100422.22
2024-04-18T07:21:27.642Z,100424.34
2024-04-18T07:24:19.309Z,100417.16
2024-04-18T07:26:49.731Z,100413.94
2024-04-18T07:29:20.661Z,100412.81
2024-04-18T07:31:51.306Z,100415.78
2024-04-18T07:34:22.055Z,100410.06
2024-04-18T07:36:53.852Z,100408.47
2024-04-18T07:39:24.933Z,100410.34
2024-04-18T07:41:55.707Z,100406.19
2024-04-18T07:44:44.659Z,100406.25
2024-04-18T07:47:15.238Z,100413.84
2024-04-18T07:49:48.009Z,100397.94
2024-04-18T07:52:20.583Z,100412.88
2024-04-18T07:54:51.678Z,100405.41
2024-04-18T07:57:22.708Z,100408.06
2024-04-18T07:59:57.130Z,100409.94
2024-04-18T08:02:30.565Z,100407.31
2024-04-18T08:05:03.840Z,100407.34
2024-04-18T08:07:37.370Z,100402.41
2024-04-18T08:10:13.730Z,100406.69
2024-04-18T08:12:50.874Z,100405.03
2024-04-18T08:18:14.962Z,100411.44
2024-04-18T08:20:49.307Z,100415.00
2024-04-18T08:23:22.514Z,100415.28
2024-04-18T08:25:54.565Z,100409.69
2024-04-18T08:28:35.838Z,100395.97
2024-04-18T08:31:06.605Z,100406.91
2024-04-18T08:33:38.832Z,100410.13
2024-04-18T08:36:11.063Z,100413.91
2024-04-18T08:38:43.163Z,100423.09
2024-04-18T08:41:17.199Z,100424.53
2024-04-18T08:43:57.253Z,100422.53
2024-04-18T08:46:28.366Z,100431.00
2024-04-18T08:49:00.426Z,100428.34
2024-04-18T08:51:32.257Z,100434.81
2024-04-18T08:54:03.200Z,100435.47
2024-04-18T08:56:37.650Z,100449.13
2024-04-18T08:59:10.187Z,100461.31
2024-04-18T09:01:41.612Z,100457.50
2024-04-18T09:04:12.025Z,100464.72
2024-04-18T09:06:42.266Z,100462.50
2024-04-18T09:09:20.519Z,100469.25
2024-04-18T09:11:51.695Z,100471.72
2024-04-18T09:14:22.414Z,100481.97
2024-04-18T09:16:52.903Z,100491.63
2024-04-18T09:19:23.466Z,100484.34
2024-04-18T09:21:53.901Z,100494.63
2024-04-18T09:24:24.292Z,100490.69
2024-04-18T09:26:54.707Z,100494.38
2024-04-18T09:29:25.042Z,100495.84
2024-04-18T09:31:56.907Z,100494.56
2024-04-18T09:34:28.309Z,100491.84
2024-04-18T09:37:00.229Z,100490.78
2024-04-18T09:39:32.356Z,100491.75
2024-04-18T09:42:15.763Z,100504.66
2024-04-18T09:45:02.515Z,100506.78
2024-04-18T09:47:34.882Z,100509.75
2024-04-18T09:50:05.867Z,100524.00
2024-04-18T09:52:36.945Z,100516.88
2024-04-18T09:55:08.137Z,100519.50
2024-04-18T09:57:38.686Z,100520.00
2024-04-18T10:00:10.578Z,100524.25
2024-04-18T10:02:44.940Z,100528.19
2024-04-18T10:05:17.261Z,100524.50
2024-04-18T10:07:48.728Z,100526.75
2024-04-18T10:10:20.356Z,100522.84
2024-04-18T10:12:51.272Z,100529.47
2024-04-18T10:15:22.200Z,100534.06
2024-04-18T10:17:53.034Z,100535.16
2024-04-18T10:20:32.094Z,100547.22
2024-04-18T10:23:03.670Z,100546.03
2024-04-18T10:25:42.605Z,100547.69
2024-04-18T10:28:32.272Z,100550.09
2024-04-18T10:31:09.455Z,100537.75
2024-04-18T10:33:41.588Z,100543.06
2024-04-18T10:36:21.582Z,100545.78
2024-04-18T10:38:52.269Z,100554.69
2024-04-18T10:41:26.967Z,100554.31
2024-04-18T10:44:00.167Z,100553.50
2024-04-18T10:46:33.397Z,100552.91
2024-04-18T10:49:04.493Z,100568.19
2024-04-18T10:51:37.085Z,100573.25
2024-04-18T10:54:12.771Z,100580.84
2024-04-18T10:56:43.261Z,100578.69
2024-04-18T10:59:15.199Z,100580.38
2024-04-18T11:01:46.105Z,100590.06
2024-04-18T11:04:17.218Z,100584.28
2024-04-18T11:06:49.225Z,100580.94
2024-04-18T11:09:20.859Z,100591.72
2024-04-18T11:11:52.302Z,100589.00
2024-04-18T11:14:27.912Z,100600.22
2024-04-18T11:17:02.740Z,100602.28
2024-04-18T11:19:34.903Z,100608.66
2024-04-18T11:22:09.330Z,100609.47
2024-04-18T11:24:40.542Z,100612.56
2024-04-18T11:27:12.331Z,100612.44
2024-04-18T11:29:47.536Z,100613.28
2024-04-18T11:32:17.892Z,100625.06
2024-04-18T11:34:57.099Z,100626.34
2024-04-18T11:37:42.315Z,100639.16
2024-04-18T11:40:13.720Z,100634.50
2024-04-18T11:42:47.568Z,100630.47
2024-04-18T11:45:18.388Z,100639.47
2024-04-18T11:47:48.998Z,100635.41
2024-04-18T11:50:20.402Z,100641.59
2024-04-18T11:52:51.094Z,100650.69
2024-04-18T11:55:31.987Z,100648.56
2024-04-18T11:58:22.195Z,100654.31
2024-04-18T12:00:52.762Z,100661.88
2024-04-18T12:03:43.288Z,100653.72
2024-04-18T12:06:32.939Z,100654.31
2024-04-18T12:09:04.929Z,100661.88
2024-04-18T12:11:36.271Z,100663.09
2024-04-18T12:14:16.087Z,100660.56
2024-04-18T12:17:01.586Z,100656.59
2024-04-18T12:19:45.513Z,100647.97
2024-04-18T12:22:35.031Z,100653.72
2024-04-18T12:25:21.101Z,100648.88
2024-04-18T12:27:52.297Z,100656.19
2024-04-18T12:30:36.808Z,100668.72
2024-04-18T12:33:22.717Z,100670.94
2024-04-18T12:35:53.730Z,100680.53
2024-04-18T12:38:24.314Z,100688.06
2024-04-18T12:41:04.868Z,100690.66
2024-04-18T12:43:39.259Z,100696.25
2024-04-18T12:46:29.101Z,100700.88
2024-04-18T12:49:00.049Z,100696.13
2024-04-18T12:51:31.779Z,100702.25
2024-04-18T12:54:02.475Z,100710.75
2024-04-18T12:56:54.004Z,100709.41
2024-04-18T12:59:25.387Z,100707.06
2024-04-18T13:01:56.020Z,100713.47
2024-04-18T13:04:26.370Z,100708.84
2024-04-18T13:06:56.547Z,100713.25
2024-04-18T13:09:32.842Z,100716.13
2024-04-18T13:12:04.496Z,100716.13
2024-04-18T13:14:54.418Z,100730.56
2024-04-18T13:17:25.369Z,100741.22
2024-04-18T13:19:56.092Z,100738.94
2024-04-18T13:22:26.229Z,100743.78
2024-04-18T13:24:57.727Z,100750.88
2024-04-18T13:27:33.375Z,100750.88
2024-04-18T13:30:08.690Z,100762.66
2024-04-18T13:32:46.986Z,100768.13
2024-04-18T13:35:20.411Z,100769.78
2024-04-18T13:37:53.142Z,100770.22
2024-04-18T13:40:27.775Z,100769.63
2024-04-18T13:43:01.948Z,100776.13
2024-04-18T13:45:34.186Z,100773.75
2024-04-18T13:48:06.574Z,100781.69
2024-04-18T13:50:49.228Z,100780.16
2024-04-18T13:53:20.846Z,100786.34
2024-04-18T13:55:52.604Z,100782.56
2024-04-18T13:58:24.523Z,100787.97
2024-04-18T14:01:03.184Z,100798.22
2024-04-18T14:03:34.516Z,100800.06
2024-04-18T14:06:12.590Z,100800.66
2024-04-18T14:08:43.950Z,100800.88
2024-04-18T14:11:33.154Z,100810.88
2024-04-18T14:14:11.027Z,100804.66
2024-04-18T14:17:20.994Z,100807.53
2024-04-18T14:20:07.639Z,100803.59
2024-04-18T14:22:51.829Z,100806.31
2024-04-18T14:25:24.759Z,100811.41
2024-04-18T14:28:23.191Z,100808.53
2024-04-18T14:31:16.666Z,100809.22
2024-04-18T14:33:50.060Z,100823.31
2024-04-18T14:36:21.002Z,100822.44
2024-04-18T14:38:51.874Z,100816.84
2024-04-18T14:41:24.845Z,100817.47
2024-04-18T14:44:00.417Z,100812.91
2024-04-18T14:46:31.987Z,100809.56
2024-04-18T14:49:24.531Z,100811.25
2024-04-18T14:51:58.400Z,100804.19
2024-04-18T14:54:28.849Z,100812.72
2024-04-18T14:56:59.175Z,100817.78
2024-04-18T14:59:42.547Z,100814.25
2024-04-18T15:02:13.729Z,100810.91
2024-04-18T15:05:03.704Z,100810.47
2024-04-18T15:07:37.163Z,100803.53
2024-04-18T15:10:19.711Z,100801.84
2024-04-18T15:12:59.626Z,100801.41
2024-04-18T15:15:32.941Z,100801.41
2024-04-18T15:18:03.468Z,100791.00
2024-04-18T15:20:34.719Z,100795.59
2024-04-18T15:23:12.157Z,100790.84
2024-04-18T15:25:42.990Z,100792.50
2024-04-18T15:28:13.284Z,100786.22
2024-04-18T15:30:45.178Z,100789.56
2024-04-18T15:33:25.165Z,100789.56
2024-04-18T15:35:55.922Z,100785.41
2024-04-18T15:38:26.075Z,100791.91
2024-04-18T15:41:15.598Z,100798.38
2024-04-18T15:43:45.988Z,100788.38
2024-04-18T15:46:35.321Z,100775.84
2024-04-18T15:49:11.333Z,100783.56
2024-04-18T15:51:41.714Z,100782.13
2024-04-18T15:54:12.485Z,100780.03
2024-04-18T15:56:42.638Z,100774.97
2024-04-18T15:59:31.503Z,100776.69
2024-04-18T16:02:13.293Z,100757.28
2024-04-18T16:04:49.716Z,100762.50
2024-04-18T16:07:22.936Z,100754.78
2024-04-18T16:10:18.037Z,100755.84
2024-04-18T16:12:57.398Z,100759.59
2024-04-18T16:15:28.828Z,100754.16
2024-04-18T16:18:05.824Z,100749.78
2024-04-18T16:20:39.403Z,100747.06
2024-04-18T16:23:09.761Z,100746.47
2024-04-18T16:25:40.969Z,100747.50
2024-04-18T16:28:11.137Z,100747.94
2024-04-18T16:31:02.844Z,100749.63
2024-04-18T16:33:33.032Z,100750.03
2024-04-18T16:36:05.387Z,100750.03
2024-04-18T16:38:54.594Z,100744.25
2024-04-18T16:41:28.130Z,100738.84
2024-04-18T16:43:58.772Z,100734.69
2024-04-18T16:46:31.480Z,100733.47
2024-04-18T16:49:01.891Z,100735.13
2024-04-18T16:51:32.049Z,100736.78
2024-04-18T16:54:06.732Z,100739.28
2024-04-18T16:57:07.213Z,100732.59
2024-04-18T16:59:55.287Z,100735.97
2024-04-18T17:02:25.315Z,100733.47
2024-04-18T17:04:55.391Z,100726.16
2024-04-18T17:07:25.596Z,100734.28
2024-04-18T17:10:14.347Z,100724.47
2024-04-18T17:13:03.411Z,100730.97
2024-04-18T17:16:03.541Z,100712.63
2024-04-18T17:18:35.919Z,100714.06
2024-04-18T17:21:06.790Z,100708.44
2024-04-18T17:23:36.848Z,100703.00
2024-04-18T17:26:06.854Z,100698.25
2024-04-18T17:28:37.583Z,100706.41
2024-04-18T17:31:07.696Z,100698.25
2024-04-18T17:33:37.957Z,100698.50
2024-04-18T17:36:08.538Z,100690.56
2024-04-18T17:38:50.417Z,100694.94
2024-04-18T17:41:35.401Z,100687.41
2024-04-18T17:44:23.779Z,100681.38
2024-04-18T17:46:58.469Z,100687.22
2024-04-18T17:49:28.721Z,100684.31
2024-04-18T17:51:59.679Z,100674.09
2024-04-18T17:54:31.602Z,100671.81
2024-04-18T17:57:01.664Z,100677.22
2024-04-18T17:59:32.185Z,100672.84
2024-04-18T18:02:02.735Z,100667.66
2024-04-18T18:04:33.826Z,100666.38
2024-04-18T18:07:06.240Z,100666.81
2024-04-18T18:09:36.347Z,100669.31
2024-04-18T18:12:07.076Z,100667.22
2024-04-18T18:14:37.285Z,100667.84
2024-04-18T18:17:08.762Z,100671.00
2024-04-18T18:19:39.259Z,100670.81
2024-04-18T18:22:09.984Z,100668.50
2024-04-18T18:24:42.908Z,100662.25
2024-04-18T18:27:13.670Z,100658.91
2024-04-18T18:29:44.839Z,100664.72
2024-04-18T18:32:15.238Z,100659.75
2024-04-18T18:34:49.614Z,100656.44
2024-04-18T18:37:20.043Z,100652.88
2024-04-18T18:40:12.372Z,100657.63
2024-04-18T18:42:42.498Z,100652.22
2024-04-18T18:45:12.817Z,100661.00
2024-04-18T18:47:45.960Z,100659.75
2024-04-18T18:50:24.867Z,100667.25
2024-04-18T18:52:55.708Z,100657.25
2024-04-18T18:55:38.663Z,100655.59
2024-04-18T18:58:08.824Z,100653.94
2024-04-18T19:00:38.737Z,100663.13
2024-04-18T19:03:15.029Z,100658.94
2024-04-18T19:05:48.784Z,100661.03
2024-04-18T19:08:18.851Z,100657.91
2024-04-18T19:10:57.793Z,100661.44
2024-04-18T19:13:28.025Z,100667.28
2024-04-18T19:15:59.739Z,100651.03
2024-04-18T19:18:29.975Z,100661.72
2024-04-18T19:21:01.079Z,100656.28
2024-04-18T19:23:38.972Z,100655.66
2024-04-18T19:26:14.754Z,100655.28
2024-04-18T19:28:45.462Z,100657.38
2024-04-18T19:31:15.472Z,100666.53
2024-04-18T19:33:45.702Z,100666.75
2024-04-18T19:36:15.652Z,100672.38
2024-04-18T19:38:46.784Z,100669.88
2024-04-18T19:41:28.719Z,100672.81
2024-04-18T19:43:58.699Z,100674.91
2024-04-18T19:46:28.672Z,100670.69
2024-04-18T19:49:14.426Z,100663.19
2024-04-18T19:52:00.988Z,100664.44
2024-04-18T19:54:36.138Z,100670.91
2024-04-18T19:57:07.076Z,100665.28
2024-04-18T19:59:37.402Z,100660.28
2024-04-18T20:02:08.380Z,100652.78
2024-04-18T20:04:42.747Z,100657.38
2024-04-18T20:07:12.756Z,100658.41
2024-04-18T20:09:42.762Z,100659.03
2024-04-18T20:12:13.298Z,100665.50
2024-04-18T20:15:04.110Z,100673.63
2024-04-18T20:17:34.148Z,100674.25
2024-04-18T20:20:04.204Z,100676.13
2024-04-18T20:22:34.577Z,100679.66
2024-04-18T20:25:06.734Z,100671.13
2024-04-18T20:27:43.150Z,100679.88
2024-04-18T20:30:13.816Z,100671.53
2024-04-18T20:33:03.900Z,100675.28
2024-04-18T20:35:36.889Z,100682.41
2024-04-18T20:38:06.866Z,100676.97
2024-04-18T20:40:36.893Z,100677.78
2024-04-18T20:43:06.962Z,100678.03
2024-04-18T20:45:36.969Z,100679.91
2024-04-18T20:48:07.575Z,100686.16
2024-04-18T20:50:37.664Z,100680.91
2024-04-18T20:53:07.423Z,100685.28
2024-04-18T20:55:37.443Z,100684.88
2024-04-18T20:58:07.510Z,100683.84
2024-04-18T21:00:39.416Z,100692.19
2024-04-18T21:03:09.735Z,100689.28
2024-04-18T21:05:39.825Z,100695.75
2024-04-18T21:08:10.339Z,100703.22
2024-04-18T21:10:41.186Z,100701.56
2024-04-18T21:13:16.785Z,100699.06
2024-04-18T21:15:50.485Z,100696.16
2024-04-18T21:18:20.583Z,100693.66
2024-04-18T21:20:50.682Z,100698.22
2024-04-18T21:23:20.476Z,100701.97
2024-04-18T21:25:50.516Z,100705.31
2024-04-18T21:28:21.564Z,100703.44
2024-04-18T21:30:53.017Z,100701.94
2024-04-18T21:33:23.240Z,100699.47
2024-04-18T21:35:53.063Z,100706.56
2024-04-18T21:38:46.715Z,100703.38
2024-04-18T21:41:24.478Z,100708.00
2024-04-18T21:44:01.404Z,100716.94
2024-04-18T21:46:31.575Z,100718.59
2024-04-18T21:49:02.090Z,100721.09
2024-04-18T21:51:32.345Z,100717.56
2024-04-18T21:54:02.569Z,100716.94
2024-04-18T21:56:32.267Z,100726.94
2024-04-18T21:59:02.198Z,100723.16
2024-04-18T22:01:43.609Z,100726.50
2024-04-18T22:04:16.539Z,100722.53
2024-04-18T22:06:47.865Z,100729.00
2024-04-18T22:09:19.117Z,100732.34
2024-04-18T22:11:49.172Z,100726.09
2024-04-18T22:14:19.714Z,100734.00
2024-04-18T22:16:49.915Z,100729.00
2024-04-18T22:19:20.563Z,100724.00
2024-04-18T22:21:54.108Z,100725.25
2024-04-18T22:24:23.970Z,100733.59
2024-04-18T22:26:54.039Z,100726.28
2024-04-18T22:29:24.154Z,100736.09
2024-04-18T22:31:55.123Z,100738.97
2024-04-18T22:34:31.210Z,100737.75
2024-04-18T22:37:27.210Z,100733.19
2024-04-18T22:39:57.413Z,100746.09
2024-04-18T22:42:27.544Z,100739.41
2024-04-18T22:44:59.923Z,100745.47
2024-04-18T22:47:30.066Z,100753.59
2024-04-18T22:50:00.322Z,100747.34
2024-04-18T22:52:31.179Z,100751.91
2024-04-18T22:55:03.510Z,100759.00
2024-04-18T22:57:33.854Z,100761.31
2024-04-18T23:00:04.084Z,100764.00
2024-04-18T23:02:34.232Z,100775.69
2024-04-18T23:05:05.695Z,100775.31
2024-04-18T23:07:36.150Z,100776.97
2024-04-18T23:10:26.442Z,100784.94
2024-04-18T23:12:56.954Z,100794.91
2024-04-18T23:15:49.073Z,100805.34
2024-04-18T23:18:19.670Z,100804.94
2024-04-18T23:20:50.248Z,100810.34
2024-04-18T23:23:20.453Z,100805.34
2024-04-18T23:25:52.645Z,100812.41
2024-04-18T23:28:22.801Z,100810.56
2024-04-18T23:30:55.587Z,100809.94
2024-04-18T23:33:25.858Z,100814.13
2024-04-18T23:35:56.746Z,100820.16
2024-04-18T23:38:28.148Z,100823.31
2024-04-18T23:40:58.962Z,100835.59
2024-04-18T23:43:29.246Z,100838.94
2024-04-18T23:46:00.157Z,100842.91
2024-04-18T23:48:31.063Z,100841.69
2024-04-18T23:51:01.408Z,100836.66
2024-04-18T23:53:31.684Z,100843.38
2024-04-18T23:56:02.160Z,100852.56
2024-04-18T23:58:32.881Z,100855.47
